sensor_id;sensor_type;location;lat;lon;timestamp;P1;durP1;ratioP1;P2;durP2;ratioP2
56269;SDS011;42176;43.240;27.880;2023-03-23T00:01:14;8.00;;;3.20;;
56269;SDS011;42176;43.240;27.880;2023-03-23T00:03:46;4.32;;;2.65;;
56269;SDS011;42176;43.240;27.880;2023-03-23T00:06:15;7.90;;;3.90;;
56269;SDS011;42176;43.240;27.880;2023-03-23T00:08:43;9.18;;;4.35;;
56269;SDS011;42176;43.240;27.880;2023-03-23T00:11:12;8.88;;;3.80;;
56269;SDS011;42176;43.240;27.880;2023-03-23T00:13:39;4.88;;;3.30;;
56269;SDS011;42176;43.240;27.880;2023-03-23T00:16:10;5.97;;;3.53;;
56269;SDS011;42176;43.240;27.880;2023-03-23T00:18:59;5.82;;;3.20;;
56269;SDS011;42176;43.240;27.880;2023-03-23T00:21:29;9.57;;;3.50;;
56269;SDS011;42176;43.240;27.880;2023-03-23T00:29:20;5.63;;;3.63;;
56269;SDS011;42176;43.240;27.880;2023-03-23T00:31:52;7.90;;;4.43;;
56269;SDS011;42176;43.240;27.880;2023-03-23T00:34:19;7.88;;;3.33;;
56269;SDS011;42176;43.240;27.880;2023-03-23T00:36:47;3.97;;;2.83;;
56269;SDS011;42176;43.240;27.880;2023-03-23T00:39:18;6.50;;;3.50;;
56269;SDS011;42176;43.240;27.880;2023-03-23T00:41:44;7.93;;;4.20;;
56269;SDS011;42176;43.240;27.880;2023-03-23T00:44:12;6.13;;;3.45;;
56269;SDS011;42176;43.240;27.880;2023-03-23T00:46:48;6.82;;;3.40;;
56269;SDS011;42176;43.240;27.880;2023-03-23T00:49:18;7.15;;;3.75;;
56269;SDS011;42176;43.240;27.880;2023-03-23T00:51:49;7.72;;;4.68;;
56269;SDS011;42176;43.240;27.880;2023-03-23T00:54:16;10.50;;;4.20;;
56269;SDS011;42176;43.240;27.880;2023-03-23T00:56:41;7.93;;;4.20;;
56269;SDS011;42176;43.240;27.880;2023-03-23T00:59:07;7.22;;;3.95;;
56269;SDS011;42176;43.240;27.880;2023-03-23T01:01:32;5.13;;;2.92;;
56269;SDS011;42176;43.240;27.880;2023-03-23T01:03:58;5.60;;;3.45;;
56269;SDS011;42176;43.240;27.880;2023-03-23T01:06:29;8.15;;;4.20;;
56269;SDS011;42176;43.240;27.880;2023-03-23T01:08:56;9.32;;;4.50;;
56269;SDS011;42176;43.240;27.880;2023-03-23T01:11:22;7.28;;;4.15;;
56269;SDS011;42176;43.240;27.880;2023-03-23T01:13:48;5.38;;;3.65;;
56269;SDS011;42176;43.240;27.880;2023-03-23T01:16:14;8.82;;;4.28;;
56269;SDS011;42176;43.240;27.880;2023-03-23T01:18:39;6.80;;;4.22;;
56269;SDS011;42176;43.240;27.880;2023-03-23T01:21:06;8.07;;;4.13;;
56269;SDS011;42176;43.240;27.880;2023-03-23T01:23:37;6.70;;;3.97;;
56269;SDS011;42176;43.240;27.880;2023-03-23T01:26:07;6.80;;;3.80;;
56269;SDS011;42176;43.240;27.880;2023-03-23T01:28:47;6.07;;;3.75;;
56269;SDS011;42176;43.240;27.880;2023-03-23T01:31:14;9.23;;;4.53;;
56269;SDS011;42176;43.240;27.880;2023-03-23T01:33:42;5.03;;;3.15;;
56269;SDS011;42176;43.240;27.880;2023-03-23T01:36:12;3.22;;;2.20;;
56269;SDS011;42176;43.240;27.880;2023-03-23T01:38:37;5.57;;;2.95;;
56269;SDS011;42176;43.240;27.880;2023-03-23T01:41:03;9.05;;;2.90;;
56269;SDS011;42176;43.240;27.880;2023-03-23T01:43:29;5.18;;;3.30;;
56269;SDS011;42176;43.240;27.880;2023-03-23T01:45:55;4.72;;;2.42;;
56269;SDS011;42176;43.240;27.880;2023-03-23T01:48:28;4.55;;;2.53;;
56269;SDS011;42176;43.240;27.880;2023-03-23T01:51:15;4.72;;;2.72;;
56269;SDS011;42176;43.240;27.880;2023-03-23T01:56:21;8.15;;;4.05;;
56269;SDS011;42176;43.240;27.880;2023-03-23T01:58:50;8.35;;;4.40;;
56269;SDS011;42176;43.240;27.880;2023-03-23T02:01:17;10.65;;;6.20;;
56269;SDS011;42176;43.240;27.880;2023-03-23T02:03:46;8.93;;;4.18;;
56269;SDS011;42176;43.240;27.880;2023-03-23T02:06:13;5.07;;;3.03;;
56269;SDS011;42176;43.240;27.880;2023-03-23T02:08:38;7.05;;;3.95;;
56269;SDS011;42176;43.240;27.880;2023-03-23T02:11:15;3.22;;;2.47;;
56269;SDS011;42176;43.240;27.880;2023-03-23T02:13:46;3.45;;;2.60;;
56269;SDS011;42176;43.240;27.880;2023-03-23T02:16:19;6.35;;;3.03;;
56269;SDS011;42176;43.240;27.880;2023-03-23T02:27:11;5.37;;;3.03;;
56269;SDS011;42176;43.240;27.880;2023-03-23T02:35:22;2.30;;;1.85;;
56269;SDS011;42176;43.240;27.880;2023-03-23T02:37:57;5.47;;;4.32;;
56269;SDS011;42176;43.240;27.880;2023-03-23T02:41:00;5.30;;;2.30;;
56269;SDS011;42176;43.240;27.880;2023-03-23T02:43:24;2.88;;;1.83;;
56269;SDS011;42176;43.240;27.880;2023-03-23T02:45:53;3.83;;;1.52;;
56269;SDS011;42176;43.240;27.880;2023-03-23T02:48:22;1.95;;;1.73;;
56269;SDS011;42176;43.240;27.880;2023-03-23T02:50:53;3.17;;;1.67;;
56269;SDS011;42176;43.240;27.880;2023-03-23T02:53:20;2.22;;;1.77;;
56269;SDS011;42176;43.240;27.880;2023-03-23T02:55:48;3.30;;;2.10;;
56269;SDS011;42176;43.240;27.880;2023-03-23T02:58:18;2.80;;;1.38;;
56269;SDS011;42176;43.240;27.880;2023-03-23T03:00:44;3.63;;;2.03;;
56269;SDS011;42176;43.240;27.880;2023-03-23T03:03:14;5.30;;;2.17;;
56269;SDS011;42176;43.240;27.880;2023-03-23T03:11:16;4.22;;;2.00;;
56269;SDS011;42176;43.240;27.880;2023-03-23T03:17:01;8.10;;;5.60;;
56269;SDS011;42176;43.240;27.880;2023-03-23T03:19:33;4.00;;;2.28;;
56269;SDS011;42176;43.240;27.880;2023-03-23T03:22:02;1.92;;;1.58;;
56269;SDS011;42176;43.240;27.880;2023-03-23T03:24:29;5.05;;;1.95;;
56269;SDS011;42176;43.240;27.880;2023-03-23T03:26:57;3.83;;;2.50;;
56269;SDS011;42176;43.240;27.880;2023-03-23T03:29:26;2.15;;;1.77;;
56269;SDS011;42176;43.240;27.880;2023-03-23T03:31:58;3.72;;;2.20;;
56269;SDS011;42176;43.240;27.880;2023-03-23T03:34:27;3.30;;;2.67;;
56269;SDS011;42176;43.240;27.880;2023-03-23T03:36:54;4.57;;;4.05;;
56269;SDS011;42176;43.240;27.880;2023-03-23T03:39:23;5.47;;;3.10;;
56269;SDS011;42176;43.240;27.880;2023-03-23T03:41:49;5.72;;;3.58;;
56269;SDS011;42176;43.240;27.880;2023-03-23T03:44:15;6.60;;;3.47;;
56269;SDS011;42176;43.240;27.880;2023-03-23T03:46:40;5.18;;;3.63;;
56269;SDS011;42176;43.240;27.880;2023-03-23T03:49:07;4.95;;;3.25;;
56269;SDS011;42176;43.240;27.880;2023-03-23T03:51:37;5.93;;;3.33;;
56269;SDS011;42176;43.240;27.880;2023-03-23T03:54:03;5.20;;;3.17;;
56269;SDS011;42176;43.240;27.880;2023-03-23T03:56:28;6.38;;;2.97;;
56269;SDS011;42176;43.240;27.880;2023-03-23T03:58:56;14.65;;;7.25;;
56269;SDS011;42176;43.240;27.880;2023-03-23T04:01:22;10.40;;;5.15;;
56269;SDS011;42176;43.240;27.880;2023-03-23T04:03:49;5.18;;;3.72;;
56269;SDS011;42176;43.240;27.880;2023-03-23T04:06:15;6.47;;;4.55;;
56269;SDS011;42176;43.240;27.880;2023-03-23T04:08:42;8.02;;;3.50;;
56269;SDS011;42176;43.240;27.880;2023-03-23T04:11:08;6.00;;;3.30;;
56269;SDS011;42176;43.240;27.880;2023-03-23T04:13:35;10.02;;;4.25;;
56269;SDS011;42176;43.240;27.880;2023-03-23T04:16:00;10.10;;;4.53;;
56269;SDS011;42176;43.240;27.880;2023-03-23T04:18:26;7.53;;;5.25;;
56269;SDS011;42176;43.240;27.880;2023-03-23T04:20:53;8.30;;;4.43;;
56269;SDS011;42176;43.240;27.880;2023-03-23T04:23:24;8.27;;;4.35;;
56269;SDS011;42176;43.240;27.880;2023-03-23T04:25:52;8.00;;;4.45;;
56269;SDS011;42176;43.240;27.880;2023-03-23T04:28:22;8.13;;;5.05;;
56269;SDS011;42176;43.240;27.880;2023-03-23T04:30:48;5.68;;;3.10;;
56269;SDS011;42176;43.240;27.880;2023-03-23T04:33:18;9.30;;;4.40;;
56269;SDS011;42176;43.240;27.880;2023-03-23T04:35:44;6.18;;;3.83;;
56269;SDS011;42176;43.240;27.880;2023-03-23T04:38:13;5.05;;;4.00;;
56269;SDS011;42176;43.240;27.880;2023-03-23T04:40:40;5.63;;;3.33;;
56269;SDS011;42176;43.240;27.880;2023-03-23T04:43:07;6.95;;;3.17;;
56269;SDS011;42176;43.240;27.880;2023-03-23T04:45:33;5.72;;;3.53;;
56269;SDS011;42176;43.240;27.880;2023-03-23T04:48:02;7.88;;;4.35;;
56269;SDS011;42176;43.240;27.880;2023-03-23T04:50:30;6.82;;;4.28;;
56269;SDS011;42176;43.240;27.880;2023-03-23T04:52:57;8.32;;;4.63;;
56269;SDS011;42176;43.240;27.880;2023-03-23T04:55:25;4.70;;;2.70;;
56269;SDS011;42176;43.240;27.880;2023-03-23T04:57:51;8.15;;;4.80;;
56269;SDS011;42176;43.240;27.880;2023-03-23T05:02:54;4.47;;;3.25;;
56269;SDS011;42176;43.240;27.880;2023-03-23T05:05:20;5.78;;;3.58;;
56269;SDS011;42176;43.240;27.880;2023-03-23T05:07:47;4.57;;;3.25;;
56269;SDS011;42176;43.240;27.880;2023-03-23T05:10:13;5.43;;;3.35;;
56269;SDS011;42176;43.240;27.880;2023-03-23T05:12:41;5.50;;;2.78;;
56269;SDS011;42176;43.240;27.880;2023-03-23T05:15:11;12.65;;;6.07;;
56269;SDS011;42176;43.240;27.880;2023-03-23T05:17:38;4.32;;;2.70;;
56269;SDS011;42176;43.240;27.880;2023-03-23T05:20:05;5.28;;;2.60;;
56269;SDS011;42176;43.240;27.880;2023-03-23T05:22:35;4.35;;;3.63;;
56269;SDS011;42176;43.240;27.880;2023-03-23T05:25:01;5.05;;;3.15;;
56269;SDS011;42176;43.240;27.880;2023-03-23T05:27:30;3.85;;;2.78;;
56269;SDS011;42176;43.240;27.880;2023-03-23T05:29:57;3.72;;;2.75;;
56269;SDS011;42176;43.240;27.880;2023-03-23T05:32:26;5.28;;;2.78;;
56269;SDS011;42176;43.240;27.880;2023-03-23T05:34:56;4.53;;;2.58;;
56269;SDS011;42176;43.240;27.880;2023-03-23T05:37:23;4.72;;;2.78;;
56269;SDS011;42176;43.240;27.880;2023-03-23T05:39:50;4.25;;;2.78;;
56269;SDS011;42176;43.240;27.880;2023-03-23T05:42:22;4.30;;;2.65;;
56269;SDS011;42176;43.240;27.880;2023-03-23T05:44:48;5.22;;;3.75;;
56269;SDS011;42176;43.240;27.880;2023-03-23T05:47:13;3.72;;;2.97;;
56269;SDS011;42176;43.240;27.880;2023-03-23T05:49:41;5.32;;;3.65;;
56269;SDS011;42176;43.240;27.880;2023-03-23T05:52:06;6.90;;;4.45;;
56269;SDS011;42176;43.240;27.880;2023-03-23T05:54:32;4.75;;;3.60;;
56269;SDS011;42176;43.240;27.880;2023-03-23T05:56:59;5.25;;;3.20;;
56269;SDS011;42176;43.240;27.880;2023-03-23T05:59:24;5.53;;;3.35;;
56269;SDS011;42176;43.240;27.880;2023-03-23T06:01:50;4.55;;;2.65;;
56269;SDS011;42176;43.240;27.880;2023-03-23T06:04:18;4.35;;;3.08;;
56269;SDS011;42176;43.240;27.880;2023-03-23T06:06:44;4.57;;;3.00;;
56269;SDS011;42176;43.240;27.880;2023-03-23T06:09:10;6.30;;;3.70;;
56269;SDS011;42176;43.240;27.880;2023-03-23T06:11:36;4.63;;;3.10;;
56269;SDS011;42176;43.240;27.880;2023-03-23T06:14:01;6.22;;;3.60;;
56269;SDS011;42176;43.240;27.880;2023-03-23T06:16:30;5.05;;;3.25;;
56269;SDS011;42176;43.240;27.880;2023-03-23T06:18:55;5.85;;;3.83;;
56269;SDS011;42176;43.240;27.880;2023-03-23T06:21:22;7.38;;;4.38;;
56269;SDS011;42176;43.240;27.880;2023-03-23T06:23:48;5.72;;;3.72;;
56269;SDS011;42176;43.240;27.880;2023-03-23T06:26:15;5.53;;;4.00;;
56269;SDS011;42176;43.240;27.880;2023-03-23T06:28:43;6.28;;;3.22;;
56269;SDS011;42176;43.240;27.880;2023-03-23T06:31:09;12.07;;;3.65;;
56269;SDS011;42176;43.240;27.880;2023-03-23T06:33:36;7.47;;;4.15;;
56269;SDS011;42176;43.240;27.880;2023-03-23T06:36:03;5.38;;;3.83;;
56269;SDS011;42176;43.240;27.880;2023-03-23T06:38:31;4.88;;;3.63;;
56269;SDS011;42176;43.240;27.880;2023-03-23T06:40:57;7.10;;;4.25;;
56269;SDS011;42176;43.240;27.880;2023-03-23T06:43:23;17.17;;;5.78;;
56269;SDS011;42176;43.240;27.880;2023-03-23T06:45:49;20.17;;;4.93;;
56269;SDS011;42176;43.240;27.880;2023-03-23T06:48:16;8.30;;;4.30;;
56269;SDS011;42176;43.240;27.880;2023-03-23T06:50:43;6.22;;;3.92;;
56269;SDS011;42176;43.240;27.880;2023-03-23T06:53:09;13.75;;;5.38;;
56269;SDS011;42176;43.240;27.880;2023-03-23T06:55:35;10.65;;;4.82;;
56269;SDS011;42176;43.240;27.880;2023-03-23T06:58:02;6.32;;;3.95;;
56269;SDS011;42176;43.240;27.880;2023-03-23T07:00:27;6.47;;;3.45;;
56269;SDS011;42176;43.240;27.880;2023-03-23T07:02:54;8.50;;;3.90;;
56269;SDS011;42176;43.240;27.880;2023-03-23T07:05:20;6.32;;;3.33;;
56269;SDS011;42176;43.240;27.880;2023-03-23T07:07:45;5.80;;;3.78;;
56269;SDS011;42176;43.240;27.880;2023-03-23T07:10:11;6.70;;;4.20;;
56269;SDS011;42176;43.240;27.880;2023-03-23T07:12:36;4.60;;;2.97;;
56269;SDS011;42176;43.240;27.880;2023-03-23T07:15:03;7.10;;;3.67;;
56269;SDS011;42176;43.240;27.880;2023-03-23T07:17:29;8.45;;;3.80;;
56269;SDS011;42176;43.240;27.880;2023-03-23T07:19:56;5.72;;;3.33;;
56269;SDS011;42176;43.240;27.880;2023-03-23T07:22:22;5.63;;;3.83;;
56269;SDS011;42176;43.240;27.880;2023-03-23T07:24:47;11.05;;;4.85;;
56269;SDS011;42176;43.240;27.880;2023-03-23T07:27:13;7.22;;;3.95;;
56269;SDS011;42176;43.240;27.880;2023-03-23T07:29:39;7.57;;;4.47;;
56269;SDS011;42176;43.240;27.880;2023-03-23T07:32:05;8.15;;;4.43;;
56269;SDS011;42176;43.240;27.880;2023-03-23T07:34:31;7.78;;;4.50;;
56269;SDS011;42176;43.240;27.880;2023-03-23T07:36:57;9.75;;;4.35;;
56269;SDS011;42176;43.240;27.880;2023-03-23T07:39:23;10.05;;;6.07;;
56269;SDS011;42176;43.240;27.880;2023-03-23T07:41:50;10.07;;;5.55;;
56269;SDS011;42176;43.240;27.880;2023-03-23T07:44:15;8.75;;;4.80;;
56269;SDS011;42176;43.240;27.880;2023-03-23T07:46:41;6.30;;;4.47;;
56269;SDS011;42176;43.240;27.880;2023-03-23T07:49:07;7.90;;;4.25;;
56269;SDS011;42176;43.240;27.880;2023-03-23T07:51:33;5.03;;;3.22;;
56269;SDS011;42176;43.240;27.880;2023-03-23T07:53:59;11.57;;;6.18;;
56269;SDS011;42176;43.240;27.880;2023-03-23T07:56:27;8.38;;;4.05;;
56269;SDS011;42176;43.240;27.880;2023-03-23T07:58:53;6.90;;;4.38;;
56269;SDS011;42176;43.240;27.880;2023-03-23T08:01:19;9.32;;;4.55;;
56269;SDS011;42176;43.240;27.880;2023-03-23T08:03:44;11.45;;;3.83;;
56269;SDS011;42176;43.240;27.880;2023-03-23T08:06:10;12.20;;;4.97;;
56269;SDS011;42176;43.240;27.880;2023-03-23T08:08:35;8.98;;;4.47;;
56269;SDS011;42176;43.240;27.880;2023-03-23T08:11:02;10.05;;;5.63;;
56269;SDS011;42176;43.240;27.880;2023-03-23T08:13:28;8.50;;;5.20;;
56269;SDS011;42176;43.240;27.880;2023-03-23T08:15:54;4.78;;;3.17;;
56269;SDS011;42176;43.240;27.880;2023-03-23T08:18:19;9.93;;;5.85;;
56269;SDS011;42176;43.240;27.880;2023-03-23T08:20:45;8.45;;;4.85;;
56269;SDS011;42176;43.240;27.880;2023-03-23T08:23:10;11.85;;;5.05;;
56269;SDS011;42176;43.240;27.880;2023-03-23T08:25:36;8.63;;;4.63;;
56269;SDS011;42176;43.240;27.880;2023-03-23T08:28:02;12.80;;;6.80;;
56269;SDS011;42176;43.240;27.880;2023-03-23T08:30:29;9.55;;;5.28;;
56269;SDS011;42176;43.240;27.880;2023-03-23T08:32:57;9.70;;;5.80;;
56269;SDS011;42176;43.240;27.880;2023-03-23T08:35:23;12.90;;;8.35;;
56269;SDS011;42176;43.240;27.880;2023-03-23T08:37:49;13.30;;;7.07;;
56269;SDS011;42176;43.240;27.880;2023-03-23T08:40:20;12.05;;;5.95;;
56269;SDS011;42176;43.240;27.880;2023-03-23T08:42:47;11.27;;;6.05;;
56269;SDS011;42176;43.240;27.880;2023-03-23T08:45:14;18.88;;;8.82;;
56269;SDS011;42176;43.240;27.880;2023-03-23T08:47:43;8.93;;;5.47;;
56269;SDS011;42176;43.240;27.880;2023-03-23T08:50:11;17.30;;;7.45;;
56269;SDS011;42176;43.240;27.880;2023-03-23T08:52:38;9.20;;;4.65;;
56269;SDS011;42176;43.240;27.880;2023-03-23T08:55:04;14.32;;;8.05;;
56269;SDS011;42176;43.240;27.880;2023-03-23T08:57:31;14.00;;;6.90;;
56269;SDS011;42176;43.240;27.880;2023-03-23T08:59:56;13.27;;;6.63;;
56269;SDS011;42176;43.240;27.880;2023-03-23T09:02:28;8.07;;;4.43;;
56269;SDS011;42176;43.240;27.880;2023-03-23T09:04:56;16.95;;;8.00;;
56269;SDS011;42176;43.240;27.880;2023-03-23T09:07:21;9.45;;;5.13;;
56269;SDS011;42176;43.240;27.880;2023-03-23T09:09:47;14.05;;;7.00;;
56269;SDS011;42176;43.240;27.880;2023-03-23T09:12:13;12.50;;;6.18;;
56269;SDS011;42176;43.240;27.880;2023-03-23T09:14:39;11.25;;;6.22;;
56269;SDS011;42176;43.240;27.880;2023-03-23T09:17:04;13.70;;;6.03;;
56269;SDS011;42176;43.240;27.880;2023-03-23T09:19:31;22.30;;;8.88;;
56269;SDS011;42176;43.240;27.880;2023-03-23T09:21:59;13.32;;;7.85;;
56269;SDS011;42176;43.240;27.880;2023-03-23T09:24:25;15.88;;;7.15;;
56269;SDS011;42176;43.240;27.880;2023-03-23T09:26:51;11.20;;;5.47;;
56269;SDS011;42176;43.240;27.880;2023-03-23T09:29:17;7.38;;;4.13;;
56269;SDS011;42176;43.240;27.880;2023-03-23T09:31:43;16.73;;;8.02;;
56269;SDS011;42176;43.240;27.880;2023-03-23T09:34:11;14.27;;;6.78;;
56269;SDS011;42176;43.240;27.880;2023-03-23T09:36:38;21.58;;;6.82;;
56269;SDS011;42176;43.240;27.880;2023-03-23T09:39:05;13.98;;;6.70;;
56269;SDS011;42176;43.240;27.880;2023-03-23T09:41:43;11.52;;;5.78;;
56269;SDS011;42176;43.240;27.880;2023-03-23T09:47:23;12.25;;;6.65;;
56269;SDS011;42176;43.240;27.880;2023-03-23T09:50:03;17.92;;;4.32;;
56269;SDS011;42176;43.240;27.880;2023-03-23T09:55:04;15.98;;;6.53;;
56269;SDS011;42176;43.240;27.880;2023-03-23T09:57:40;12.02;;;6.72;;
56269;SDS011;42176;43.240;27.880;2023-03-23T10:00:17;11.30;;;5.35;;
56269;SDS011;42176;43.240;27.880;2023-03-23T10:05:45;8.20;;;5.43;;
56269;SDS011;42176;43.240;27.880;2023-03-23T10:08:13;5.93;;;3.78;;
56269;SDS011;42176;43.240;27.880;2023-03-23T10:10:59;7.13;;;3.83;;
56269;SDS011;42176;43.240;27.880;2023-03-23T10:15:56;13.10;;;6.47;;
56269;SDS011;42176;43.240;27.880;2023-03-23T10:18:28;9.38;;;5.10;;
56269;SDS011;42176;43.240;27.880;2023-03-23T10:21:16;7.28;;;5.05;;
56269;SDS011;42176;43.240;27.880;2023-03-23T10:31:59;16.55;;;7.50;;
56269;SDS011;42176;43.240;27.880;2023-03-23T10:37:14;18.67;;;7.90;;
56269;SDS011;42176;43.240;27.880;2023-03-23T10:42:35;15.90;;;9.13;;
56269;SDS011;42176;43.240;27.880;2023-03-23T10:50:57;19.33;;;10.65;;
56269;SDS011;42176;43.240;27.880;2023-03-23T10:55:59;18.05;;;9.93;;
56269;SDS011;42176;43.240;27.880;2023-03-23T10:58:35;24.15;;;12.57;;
56269;SDS011;42176;43.240;27.880;2023-03-23T11:01:02;21.27;;;11.40;;
56269;SDS011;42176;43.240;27.880;2023-03-23T11:06:02;20.58;;;10.80;;
56269;SDS011;42176;43.240;27.880;2023-03-23T11:08:34;20.67;;;11.18;;
56269;SDS011;42176;43.240;27.880;2023-03-23T11:11:10;19.08;;;9.60;;
56269;SDS011;42176;43.240;27.880;2023-03-23T11:13:38;18.17;;;10.55;;
56269;SDS011;42176;43.240;27.880;2023-03-23T11:16:08;17.63;;;9.53;;
56269;SDS011;42176;43.240;27.880;2023-03-23T11:18:38;19.48;;;9.88;;
56269;SDS011;42176;43.240;27.880;2023-03-23T11:21:05;15.25;;;9.10;;
56269;SDS011;42176;43.240;27.880;2023-03-23T11:23:37;25.15;;;9.65;;
56269;SDS011;42176;43.240;27.880;2023-03-23T11:31:21;19.38;;;9.75;;
56269;SDS011;42176;43.240;27.880;2023-03-23T11:33:58;16.52;;;8.77;;
56269;SDS011;42176;43.240;27.880;2023-03-23T11:36:31;15.27;;;7.90;;
56269;SDS011;42176;43.240;27.880;2023-03-23T11:39:02;20.40;;;10.30;;
56269;SDS011;42176;43.240;27.880;2023-03-23T11:41:44;18.92;;;10.70;;
56269;SDS011;42176;43.240;27.880;2023-03-23T11:44:10;23.45;;;12.35;;
56269;SDS011;42176;43.240;27.880;2023-03-23T11:46:39;18.30;;;9.23;;
56269;SDS011;42176;43.240;27.880;2023-03-23T11:49:10;25.88;;;12.77;;
56269;SDS011;42176;43.240;27.880;2023-03-23T11:51:51;10.35;;;6.93;;
56269;SDS011;42176;43.240;27.880;2023-03-23T11:56:54;21.23;;;10.18;;
56269;SDS011;42176;43.240;27.880;2023-03-23T11:59:34;7.18;;;5.13;;
56269;SDS011;42176;43.240;27.880;2023-03-23T12:21:20;24.25;;;11.15;;
56269;SDS011;42176;43.240;27.880;2023-03-23T12:27:02;26.23;;;11.20;;
56269;SDS011;42176;43.240;27.880;2023-03-23T12:38:30;28.13;;;11.63;;
56269;SDS011;42176;43.240;27.880;2023-03-23T12:44:07;26.70;;;13.45;;
56269;SDS011;42176;43.240;27.880;2023-03-23T12:58:05;20.55;;;9.15;;
56269;SDS011;42176;43.240;27.880;2023-03-23T13:00:35;17.55;;;9.02;;
56269;SDS011;42176;43.240;27.880;2023-03-23T13:06:12;27.10;;;10.35;;
56269;SDS011;42176;43.240;27.880;2023-03-23T13:08:44;15.18;;;8.13;;
56269;SDS011;42176;43.240;27.880;2023-03-23T13:11:18;25.00;;;11.55;;
56269;SDS011;42176;43.240;27.880;2023-03-23T13:13:54;22.17;;;10.18;;
56269;SDS011;42176;43.240;27.880;2023-03-23T13:19:26;23.20;;;12.60;;
56269;SDS011;42176;43.240;27.880;2023-03-23T13:25:01;22.35;;;11.35;;
56269;SDS011;42176;43.240;27.880;2023-03-23T13:27:31;24.30;;;13.23;;
56269;SDS011;42176;43.240;27.880;2023-03-23T13:29:57;25.33;;;11.15;;
56269;SDS011;42176;43.240;27.880;2023-03-23T13:32:30;22.65;;;13.43;;
56269;SDS011;42176;43.240;27.880;2023-03-23T13:35:00;24.92;;;11.40;;
56269;SDS011;42176;43.240;27.880;2023-03-23T13:37:40;26.38;;;10.75;;
56269;SDS011;42176;43.240;27.880;2023-03-23T13:42:47;24.77;;;12.75;;
56269;SDS011;42176;43.240;27.880;2023-03-23T13:47:43;21.55;;;10.52;;
56269;SDS011;42176;43.240;27.880;2023-03-23T14:02:50;21.50;;;10.93;;
56269;SDS011;42176;43.240;27.880;2023-03-23T14:11:09;27.85;;;11.38;;
56269;SDS011;42176;43.240;27.880;2023-03-23T14:13:16;21.73;;;10.15;;
56269;SDS011;42176;43.240;27.880;2023-03-23T14:16:04;24.80;;;11.45;;
56269;SDS011;42176;43.240;27.880;2023-03-23T14:18:40;22.33;;;8.77;;
56269;SDS011;42176;43.240;27.880;2023-03-23T14:21:16;20.85;;;10.48;;
56269;SDS011;42176;43.240;27.880;2023-03-23T14:23:46;20.00;;;11.75;;
56269;SDS011;42176;43.240;27.880;2023-03-23T14:26:12;13.70;;;7.28;;
56269;SDS011;42176;43.240;27.880;2023-03-23T14:28:43;18.77;;;10.02;;
56269;SDS011;42176;43.240;27.880;2023-03-23T14:31:20;23.10;;;11.00;;
56269;SDS011;42176;43.240;27.880;2023-03-23T14:33:48;22.70;;;11.98;;
56269;SDS011;42176;43.240;27.880;2023-03-23T14:36:19;21.75;;;10.38;;
56269;SDS011;42176;43.240;27.880;2023-03-23T14:38:46;27.60;;;10.48;;
56269;SDS011;42176;43.240;27.880;2023-03-23T14:41:13;21.02;;;10.82;;
56269;SDS011;42176;43.240;27.880;2023-03-23T14:43:38;19.17;;;11.80;;
56269;SDS011;42176;43.240;27.880;2023-03-23T14:46:05;27.85;;;12.73;;
56269;SDS011;42176;43.240;27.880;2023-03-23T14:48:34;27.55;;;10.63;;
56269;SDS011;42176;43.240;27.880;2023-03-23T14:51:01;27.85;;;11.60;;
56269;SDS011;42176;43.240;27.880;2023-03-23T14:53:37;19.13;;;10.05;;
56269;SDS011;42176;43.240;27.880;2023-03-23T14:56:14;28.80;;;11.70;;
56269;SDS011;42176;43.240;27.880;2023-03-23T14:58:45;25.27;;;11.95;;
56269;SDS011;42176;43.240;27.880;2023-03-23T15:01:23;24.60;;;11.63;;
56269;SDS011;42176;43.240;27.880;2023-03-23T15:04:02;20.20;;;10.05;;
56269;SDS011;42176;43.240;27.880;2023-03-23T15:06:32;31.10;;;12.77;;
56269;SDS011;42176;43.240;27.880;2023-03-23T15:09:02;31.52;;;13.63;;
56269;SDS011;42176;43.240;27.880;2023-03-23T15:11:31;33.08;;;12.65;;
56269;SDS011;42176;43.240;27.880;2023-03-23T15:14:07;33.22;;;12.48;;
56269;SDS011;42176;43.240;27.880;2023-03-23T15:16:39;27.40;;;11.63;;
56269;SDS011;42176;43.240;27.880;2023-03-23T15:19:22;23.13;;;11.75;;
56269;SDS011;42176;43.240;27.880;2023-03-23T15:24:41;30.02;;;13.23;;
56269;SDS011;42176;43.240;27.880;2023-03-23T15:27:11;31.52;;;12.35;;
56269;SDS011;42176;43.240;27.880;2023-03-23T15:29:50;29.13;;;12.45;;
56269;SDS011;42176;43.240;27.880;2023-03-23T15:34:54;31.10;;;12.80;;
56269;SDS011;42176;43.240;27.880;2023-03-23T15:37:28;30.35;;;13.40;;
56269;SDS011;42176;43.240;27.880;2023-03-23T15:39:57;29.85;;;11.45;;
56269;SDS011;42176;43.240;27.880;2023-03-23T15:42:28;41.67;;;14.45;;
56269;SDS011;42176;43.240;27.880;2023-03-23T15:50:04;20.70;;;11.20;;
56269;SDS011;42176;43.240;27.880;2023-03-23T15:52:53;25.40;;;14.93;;
56269;SDS011;42176;43.240;27.880;2023-03-23T15:57:53;33.00;;;15.27;;
56269;SDS011;42176;43.240;27.880;2023-03-23T16:00:20;54.00;;;15.93;;
56269;SDS011;42176;43.240;27.880;2023-03-23T16:02:48;29.13;;;14.68;;
56269;SDS011;42176;43.240;27.880;2023-03-23T16:05:18;32.05;;;15.60;;
56269;SDS011;42176;43.240;27.880;2023-03-23T16:07:43;31.45;;;13.55;;
56269;SDS011;42176;43.240;27.880;2023-03-23T16:10:19;39.92;;;14.77;;
56269;SDS011;42176;43.240;27.880;2023-03-23T16:12:46;35.65;;;15.73;;
56269;SDS011;42176;43.240;27.880;2023-03-23T16:15:12;37.30;;;15.27;;
56269;SDS011;42176;43.240;27.880;2023-03-23T16:17:39;41.03;;;14.95;;
56269;SDS011;42176;43.240;27.880;2023-03-23T16:20:10;32.20;;;14.75;;
56269;SDS011;42176;43.240;27.880;2023-03-23T16:22:40;35.38;;;16.00;;
56269;SDS011;42176;43.240;27.880;2023-03-23T16:25:05;31.17;;;11.40;;
56269;SDS011;42176;43.240;27.880;2023-03-23T16:27:32;33.05;;;16.17;;
56269;SDS011;42176;43.240;27.880;2023-03-23T16:29:57;43.45;;;16.08;;
56269;SDS011;42176;43.240;27.880;2023-03-23T16:32:24;36.35;;;15.82;;
56269;SDS011;42176;43.240;27.880;2023-03-23T16:34:51;31.42;;;14.48;;
56269;SDS011;42176;43.240;27.880;2023-03-23T16:37:16;25.83;;;14.15;;
56269;SDS011;42176;43.240;27.880;2023-03-23T16:39:42;32.78;;;15.10;;
56269;SDS011;42176;43.240;27.880;2023-03-23T16:42:07;32.08;;;15.45;;
56269;SDS011;42176;43.240;27.880;2023-03-23T16:44:33;37.13;;;17.95;;
56269;SDS011;42176;43.240;27.880;2023-03-23T16:46:59;25.75;;;15.88;;
56269;SDS011;42176;43.240;27.880;2023-03-23T16:49:24;49.30;;;21.55;;
56269;SDS011;42176;43.240;27.880;2023-03-23T16:51:49;46.90;;;20.65;;
56269;SDS011;42176;43.240;27.880;2023-03-23T16:54:15;40.13;;;17.77;;
56269;SDS011;42176;43.240;27.880;2023-03-23T16:56:40;36.78;;;18.30;;
56269;SDS011;42176;43.240;27.880;2023-03-23T16:59:10;43.47;;;22.50;;
56269;SDS011;42176;43.240;27.880;2023-03-23T17:01:36;35.95;;;18.42;;
56269;SDS011;42176;43.240;27.880;2023-03-23T17:04:02;38.17;;;18.85;;
56269;SDS011;42176;43.240;27.880;2023-03-23T17:06:28;48.83;;;20.55;;
56269;SDS011;42176;43.240;27.880;2023-03-23T17:08:53;41.03;;;18.23;;
56269;SDS011;42176;43.240;27.880;2023-03-23T17:11:19;40.65;;;22.58;;
56269;SDS011;42176;43.240;27.880;2023-03-23T17:13:44;26.80;;;10.60;;
56269;SDS011;42176;43.240;27.880;2023-03-23T17:16:10;35.00;;;14.93;;
56269;SDS011;42176;43.240;27.880;2023-03-23T17:18:35;26.75;;;12.93;;
56269;SDS011;42176;43.240;27.880;2023-03-23T17:21:01;28.70;;;14.25;;